RJNF(METAR)
06/28 16:00
RJNF 280700Z 33010KT 9999 FEW015 FEW030 SCTXXX 26/21 Q1012 RMK
A2989=
戻る
トップページへ戻る
IMOC Co,.Ltd.